sensor_id;sensor_type;location;lat;lon;timestamp;temperature;humidity
14709;DHT22;7445;50.774;4.944;2022-12-11T08:30:24;1.70;99.90
14709;DHT22;7445;50.774;4.944;2022-12-11T08:32:49;1.70;99.90
14709;DHT22;7445;50.774;4.944;2022-12-11T08:35:16;1.70;99.90
14709;DHT22;7445;50.774;4.944;2022-12-11T08:37:42;1.80;99.90
14709;DHT22;7445;50.774;4.944;2022-12-11T08:40:08;1.70;99.90
14709;DHT22;7445;50.774;4.944;2022-12-11T08:42:35;1.70;99.90
14709;DHT22;7445;50.774;4.944;2022-12-11T08:45:15;1.70;99.90
14709;DHT22;7445;50.774;4.944;2022-12-11T08:47:43;1.70;99.90
14709;DHT22;7445;50.774;4.944;2022-12-11T08:50:31;1.70;99.90
14709;DHT22;7445;50.774;4.944;2022-12-11T08:53:03;1.80;99.90
14709;DHT22;7445;50.774;4.944;2022-12-11T08:55:51;1.80;99.90
14709;DHT22;7445;50.774;4.944;2022-12-11T08:58:20;1.80;99.90
14709;DHT22;7445;50.774;4.944;2022-12-11T09:00:46;1.90;99.90
14709;DHT22;7445;50.774;4.944;2022-12-11T09:03:12;1.80;99.90
14709;DHT22;7445;50.774;4.944;2022-12-11T09:05:42;1.80;99.90
14709;DHT22;7445;50.774;4.944;2022-12-11T09:08:08;1.80;99.90
14709;DHT22;7445;50.774;4.944;2022-12-11T09:10:36;1.90;99.90
14709;DHT22;7445;50.774;4.944;2022-12-11T09:13:04;1.80;99.90
14709;DHT22;7445;50.774;4.944;2022-12-11T09:15:30;1.80;99.90
14709;DHT22;7445;50.774;4.944;2022-12-11T09:17:57;1.80;99.90
14709;DHT22;7445;50.774;4.944;2022-12-11T09:20:23;1.80;99.90
14709;DHT22;7445;50.774;4.944;2022-12-11T09:22:51;1.80;99.90
14709;DHT22;7445;50.774;4.944;2022-12-11T09:25:18;1.90;99.90
14709;DHT22;7445;50.774;4.944;2022-12-11T09:27:46;1.90;99.90
14709;DHT22;7445;50.774;4.944;2022-12-11T09:30:12;1.90;99.90
14709;DHT22;7445;50.774;4.944;2022-12-11T09:32:38;2.00;99.90
14709;DHT22;7445;50.774;4.944;2022-12-11T09:35:05;2.00;99.90
14709;DHT22;7445;50.774;4.944;2022-12-11T09:37:32;2.10;99.90
14709;DHT22;7445;50.774;4.944;2022-12-11T09:39:58;2.10;99.90
14709;DHT22;7445;50.774;4.944;2022-12-11T09:42:29;2.10;99.90
14709;DHT22;7445;50.774;4.944;2022-12-11T09:45:01;2.10;99.90
14709;DHT22;7445;50.774;4.944;2022-12-11T09:47:36;2.10;99.90
14709;DHT22;7445;50.774;4.944;2022-12-11T09:52:53;2.20;99.90
14709;DHT22;7445;50.774;4.944;2022-12-11T09:55:23;2.20;99.90
14709;DHT22;7445;50.774;4.944;2022-12-11T09:58:19;2.20;99.90
14709;DHT22;7445;50.774;4.944;2022-12-11T10:00:48;2.20;99.90
14709;DHT22;7445;50.774;4.944;2022-12-11T10:11:57;2.20;99.90
14709;DHT22;7445;50.774;4.944;2022-12-11T10:14:51;2.30;99.90
14709;DHT22;7445;50.774;4.944;2022-12-11T10:17:27;2.20;99.90
14709;DHT22;7445;50.774;4.944;2022-12-11T10:19:55;2.20;99.90
14709;DHT22;7445;50.774;4.944;2022-12-11T10:22:25;2.20;99.90
14709;DHT22;7445;50.774;4.944;2022-12-11T10:25:04;2.20;99.90
14709;DHT22;7445;50.774;4.944;2022-12-11T10:27:33;2.30;99.90
14709;DHT22;7445;50.774;4.944;2022-12-11T10:30:19;2.40;99.90
14709;DHT22;7445;50.774;4.944;2022-12-11T10:32:48;2.50;99.90
14709;DHT22;7445;50.774;4.944;2022-12-11T10:38:05;2.70;99.90
14709;DHT22;7445;50.774;4.944;2022-12-11T10:40:34;2.70;99.90
14709;DHT22;7445;50.774;4.944;2022-12-11T10:43:02;2.80;99.90
14709;DHT22;7445;50.774;4.944;2022-12-11T10:45:28;2.90;99.90
14709;DHT22;7445;50.774;4.944;2022-12-11T10:48:09;3.00;99.90
14709;DHT22;7445;50.774;4.944;2022-12-11T10:50:35;3.10;99.90
14709;DHT22;7445;50.774;4.944;2022-12-11T10:53:02;3.10;99.90
14709;DHT22;7445;50.774;4.944;2022-12-11T10:55:33;3.20;99.90
14709;DHT22;7445;50.774;4.944;2022-12-11T10:58:04;3.20;99.90
14709;DHT22;7445;50.774;4.944;2022-12-11T11:00:35;3.20;99.90
14709;DHT22;7445;50.774;4.944;2022-12-11T11:03:16;3.30;99.90
14709;DHT22;7445;50.774;4.944;2022-12-11T11:05:43;3.20;99.90
14709;DHT22;7445;50.774;4.944;2022-12-11T11:08:19;3.20;99.90
14709;DHT22;7445;50.774;4.944;2022-12-11T11:10:57;3.00;99.90
14709;DHT22;7445;50.774;4.944;2022-12-11T11:13:29;3.00;99.90
14709;DHT22;7445;50.774;4.944;2022-12-11T11:16:04;3.10;99.90
14709;DHT22;7445;50.774;4.944;2022-12-11T11:18:30;3.10;99.90
14709;DHT22;7445;50.774;4.944;2022-12-11T11:20:57;3.10;99.90
14709;DHT22;7445;50.774;4.944;2022-12-11T11:23:23;3.10;99.90
14709;DHT22;7445;50.774;4.944;2022-12-11T11:25:55;3.10;99.90
14709;DHT22;7445;50.774;4.944;2022-12-11T11:28:35;3.20;99.90
14709;DHT22;7445;50.774;4.944;2022-12-11T11:31:06;3.30;99.90
14709;DHT22;7445;50.774;4.944;2022-12-11T11:33:34;3.40;99.90
14709;DHT22;7445;50.774;4.944;2022-12-11T11:36:04;3.50;99.90
14709;DHT22;7445;50.774;4.944;2022-12-11T11:38:43;3.50;99.90
14709;DHT22;7445;50.774;4.944;2022-12-11T11:41:50;3.50;99.90
14709;DHT22;7445;50.774;4.944;2022-12-11T11:44:31;3.50;99.90
14709;DHT22;7445;50.774;4.944;2022-12-11T11:47:08;3.40;99.90
14709;DHT22;7445;50.774;4.944;2022-12-11T11:49:45;3.40;99.90
14709;DHT22;7445;50.774;4.944;2022-12-11T11:52:20;3.40;99.90
14709;DHT22;7445;50.774;4.944;2022-12-11T12:00:18;3.40;99.90
14709;DHT22;7445;50.774;4.944;2022-12-11T12:02:46;3.30;99.90
14709;DHT22;7445;50.774;4.944;2022-12-11T12:05:14;3.30;99.90
14709;DHT22;7445;50.774;4.944;2022-12-11T12:07:53;3.30;99.90
14709;DHT22;7445;50.774;4.944;2022-12-11T12:10:20;3.30;99.90
14709;DHT22;7445;50.774;4.944;2022-12-11T12:13:03;3.40;99.90
14709;DHT22;7445;50.774;4.944;2022-12-11T12:15:56;3.40;99.90
14709;DHT22;7445;50.774;4.944;2022-12-11T12:26:32;3.80;99.90
14709;DHT22;7445;50.774;4.944;2022-12-11T12:29:20;3.80;99.90
14709;DHT22;7445;50.774;4.944;2022-12-11T12:32:08;3.80;99.90
14709;DHT22;7445;50.774;4.944;2022-12-11T12:37:35;3.90;97.40
14709;DHT22;7445;50.774;4.944;2022-12-11T12:48:16;3.40;99.90
14709;DHT22;7445;50.774;4.944;2022-12-11T12:50:45;3.30;99.90
14709;DHT22;7445;50.774;4.944;2022-12-11T12:53:22;3.30;99.90
14709;DHT22;7445;50.774;4.944;2022-12-11T12:55:48;3.30;99.90
14709;DHT22;7445;50.774;4.944;2022-12-11T13:04:03;3.10;99.90
14709;DHT22;7445;50.774;4.944;2022-12-11T13:06:39;3.10;99.90
14709;DHT22;7445;50.774;4.944;2022-12-11T13:09:25;3.00;99.90
14709;DHT22;7445;50.774;4.944;2022-12-11T13:11:54;2.90;99.90
14709;DHT22;7445;50.774;4.944;2022-12-11T13:14:28;2.90;99.90
14709;DHT22;7445;50.774;4.944;2022-12-11T13:19:48;3.10;99.90
14709;DHT22;7445;50.774;4.944;2022-12-11T13:27:40;3.30;99.90
14709;DHT22;7445;50.774;4.944;2022-12-11T13:33:02;3.40;99.90
14709;DHT22;7445;50.774;4.944;2022-12-11T13:35:30;3.40;99.90
14709;DHT22;7445;50.774;4.944;2022-12-11T13:38:05;3.40;99.90
14709;DHT22;7445;50.774;4.944;2022-12-11T13:40:38;3.40;99.90
14709;DHT22;7445;50.774;4.944;2022-12-11T13:43:18;3.40;99.90
14709;DHT22;7445;50.774;4.944;2022-12-11T13:45:56;3.40;99.90
14709;DHT22;7445;50.774;4.944;2022-12-11T13:50:55;3.40;99.90
14709;DHT22;7445;50.774;4.944;2022-12-11T13:53:22;3.40;99.90
14709;DHT22;7445;50.774;4.944;2022-12-11T13:56:05;3.40;99.90
14709;DHT22;7445;50.774;4.944;2022-12-11T13:58:37;3.40;99.90
14709;DHT22;7445;50.774;4.944;2022-12-11T14:03:30;3.30;99.90
14709;DHT22;7445;50.774;4.944;2022-12-11T14:05:56;3.30;99.90
14709;DHT22;7445;50.774;4.944;2022-12-11T14:08:28;3.20;99.90
14709;DHT22;7445;50.774;4.944;2022-12-11T14:10:55;3.20;99.90
14709;DHT22;7445;50.774;4.944;2022-12-11T14:13:24;3.30;99.90
14709;DHT22;7445;50.774;4.944;2022-12-11T14:15:52;3.20;99.90
14709;DHT22;7445;50.774;4.944;2022-12-11T14:18:21;3.30;99.90
14709;DHT22;7445;50.774;4.944;2022-12-11T14:20:56;3.30;99.90
14709;DHT22;7445;50.774;4.944;2022-12-11T14:23:27;3.30;99.90
14709;DHT22;7445;50.774;4.944;2022-12-11T14:26:16;3.30;99.90
14709;DHT22;7445;50.774;4.944;2022-12-11T14:28:42;3.30;99.90
14709;DHT22;7445;50.774;4.944;2022-12-11T14:31:12;3.40;99.90
14709;DHT22;7445;50.774;4.944;2022-12-11T14:33:46;3.40;99.90
14709;DHT22;7445;50.774;4.944;2022-12-11T14:36:14;3.30;99.90
14709;DHT22;7445;50.774;4.944;2022-12-11T14:38:48;3.30;99.90
14709;DHT22;7445;50.774;4.944;2022-12-11T14:44:14;3.20;99.90
14709;DHT22;7445;50.774;4.944;2022-12-11T14:46:54;3.10;99.90
14709;DHT22;7445;50.774;4.944;2022-12-11T14:49:23;3.00;99.90
14709;DHT22;7445;50.774;4.944;2022-12-11T14:51:53;3.00;99.90
14709;DHT22;7445;50.774;4.944;2022-12-11T14:54:37;3.00;99.90
14709;DHT22;7445;50.774;4.944;2022-12-11T14:57:05;3.00;99.90
14709;DHT22;7445;50.774;4.944;2022-12-11T14:59:43;3.00;99.90
14709;DHT22;7445;50.774;4.944;2022-12-11T15:07:30;2.90;99.90
14709;DHT22;7445;50.774;4.944;2022-12-11T15:09:56;2.80;99.90
14709;DHT22;7445;50.774;4.944;2022-12-11T15:12:22;2.90;99.90
14709;DHT22;7445;50.774;4.944;2022-12-11T15:15:00;2.80;99.90
14709;DHT22;7445;50.774;4.944;2022-12-11T15:17:27;2.80;99.90
14709;DHT22;7445;50.774;4.944;2022-12-11T15:20:19;2.70;99.90
14709;DHT22;7445;50.774;4.944;2022-12-11T15:22:46;2.70;99.90
14709;DHT22;7445;50.774;4.944;2022-12-11T15:25:20;2.70;99.90
14709;DHT22;7445;50.774;4.944;2022-12-11T15:27:50;2.70;99.90
14709;DHT22;7445;50.774;4.944;2022-12-11T15:32:45;2.70;99.90
14709;DHT22;7445;50.774;4.944;2022-12-11T15:35:25;2.70;99.90
14709;DHT22;7445;50.774;4.944;2022-12-11T15:37:56;2.70;99.90
14709;DHT22;7445;50.774;4.944;2022-12-11T15:40:23;2.70;99.90
14709;DHT22;7445;50.774;4.944;2022-12-11T15:42:49;2.70;99.90
14709;DHT22;7445;50.774;4.944;2022-12-11T15:45:20;2.60;99.90
14709;DHT22;7445;50.774;4.944;2022-12-11T15:47:47;2.60;99.90
14709;DHT22;7445;50.774;4.944;2022-12-11T15:50:17;2.70;99.90
14709;DHT22;7445;50.774;4.944;2022-12-11T15:52:43;2.60;99.90
14709;DHT22;7445;50.774;4.944;2022-12-11T15:55:10;2.60;99.90
14709;DHT22;7445;50.774;4.944;2022-12-11T15:57:36;2.50;99.90
14709;DHT22;7445;50.774;4.944;2022-12-11T16:00:03;2.50;99.90
14709;DHT22;7445;50.774;4.944;2022-12-11T16:02:31;2.50;99.90
14709;DHT22;7445;50.774;4.944;2022-12-11T16:04:56;2.50;99.90
14709;DHT22;7445;50.774;4.944;2022-12-11T16:07:24;2.40;99.90
14709;DHT22;7445;50.774;4.944;2022-12-11T16:09:51;2.40;99.90
14709;DHT22;7445;50.774;4.944;2022-12-11T16:12:16;2.30;99.90
14709;DHT22;7445;50.774;4.944;2022-12-11T16:14:44;2.30;99.90
14709;DHT22;7445;50.774;4.944;2022-12-11T16:17:11;2.30;99.90
14709;DHT22;7445;50.774;4.944;2022-12-11T16:19:37;2.30;99.90
14709;DHT22;7445;50.774;4.944;2022-12-11T16:22:04;2.30;99.90
14709;DHT22;7445;50.774;4.944;2022-12-11T16:24:31;2.30;99.90
14709;DHT22;7445;50.774;4.944;2022-12-11T16:26:58;2.40;99.90
14709;DHT22;7445;50.774;4.944;2022-12-11T16:29:23;2.30;99.90
14709;DHT22;7445;50.774;4.944;2022-12-11T16:31:49;2.30;99.90
14709;DHT22;7445;50.774;4.944;2022-12-11T16:34:15;2.20;99.90
14709;DHT22;7445;50.774;4.944;2022-12-11T16:36:40;2.20;99.90
14709;DHT22;7445;50.774;4.944;2022-12-11T16:39:06;2.30;99.90
14709;DHT22;7445;50.774;4.944;2022-12-11T16:41:32;2.30;99.90
14709;DHT22;7445;50.774;4.944;2022-12-11T16:44:00;2.30;99.90
14709;DHT22;7445;50.774;4.944;2022-12-11T16:46:26;2.30;99.90
14709;DHT22;7445;50.774;4.944;2022-12-11T16:48:52;2.30;99.90
14709;DHT22;7445;50.774;4.944;2022-12-11T16:51:18;2.30;99.90
14709;DHT22;7445;50.774;4.944;2022-12-11T16:53:44;2.20;99.90
14709;DHT22;7445;50.774;4.944;2022-12-11T16:56:10;2.30;99.90
14709;DHT22;7445;50.774;4.944;2022-12-11T16:58:36;2.30;99.90
14709;DHT22;7445;50.774;4.944;2022-12-11T17:01:08;2.20;99.90
14709;DHT22;7445;50.774;4.944;2022-12-11T17:03:37;2.20;99.90
14709;DHT22;7445;50.774;4.944;2022-12-11T17:06:08;2.30;99.90
14709;DHT22;7445;50.774;4.944;2022-12-11T17:08:35;2.20;99.90
14709;DHT22;7445;50.774;4.944;2022-12-11T17:11:04;2.20;99.90
14709;DHT22;7445;50.774;4.944;2022-12-11T17:13:31;2.20;99.90
14709;DHT22;7445;50.774;4.944;2022-12-11T17:15:57;2.20;99.90
14709;DHT22;7445;50.774;4.944;2022-12-11T17:18:22;2.20;99.90
14709;DHT22;7445;50.774;4.944;2022-12-11T17:20:48;2.20;99.90
14709;DHT22;7445;50.774;4.944;2022-12-11T17:23:13;2.20;99.90
14709;DHT22;7445;50.774;4.944;2022-12-11T17:25:44;2.20;99.90
14709;DHT22;7445;50.774;4.944;2022-12-11T17:28:10;2.20;99.90
14709;DHT22;7445;50.774;4.944;2022-12-11T17:30:43;2.20;99.90
14709;DHT22;7445;50.774;4.944;2022-12-11T17:33:09;2.10;99.90
14709;DHT22;7445;50.774;4.944;2022-12-11T17:35:38;2.00;99.90
14709;DHT22;7445;50.774;4.944;2022-12-11T17:38:04;2.00;99.90
14709;DHT22;7445;50.774;4.944;2022-12-11T17:40:30;1.90;99.90
14709;DHT22;7445;50.774;4.944;2022-12-11T17:42:55;1.80;99.90
14709;DHT22;7445;50.774;4.944;2022-12-11T17:45:21;1.70;99.90
14709;DHT22;7445;50.774;4.944;2022-12-11T17:47:47;1.60;99.90
14709;DHT22;7445;50.774;4.944;2022-12-11T17:50:12;1.50;99.90
14709;DHT22;7445;50.774;4.944;2022-12-11T17:52:38;1.40;99.90
14709;DHT22;7445;50.774;4.944;2022-12-11T17:55:05;1.30;99.90
14709;DHT22;7445;50.774;4.944;2022-12-11T17:57:31;1.20;99.90
14709;DHT22;7445;50.774;4.944;2022-12-11T17:59:56;1.20;99.90
14709;DHT22;7445;50.774;4.944;2022-12-11T18:02:23;1.10;99.90
14709;DHT22;7445;50.774;4.944;2022-12-11T18:04:49;1.00;99.90
14709;DHT22;7445;50.774;4.944;2022-12-11T18:07:15;0.90;99.90
14709;DHT22;7445;50.774;4.944;2022-12-11T18:09:41;0.80;99.90
14709;DHT22;7445;50.774;4.944;2022-12-11T18:12:08;0.80;99.90
14709;DHT22;7445;50.774;4.944;2022-12-11T18:14:35;0.70;99.90
14709;DHT22;7445;50.774;4.944;2022-12-11T18:17:01;0.70;99.90
14709;DHT22;7445;50.774;4.944;2022-12-11T18:19:28;0.70;99.90
14709;DHT22;7445;50.774;4.944;2022-12-11T18:21:54;0.60;99.90
14709;DHT22;7445;50.774;4.944;2022-12-11T18:24:21;0.70;99.90
14709;DHT22;7445;50.774;4.944;2022-12-11T18:26:48;0.60;99.90
14709;DHT22;7445;50.774;4.944;2022-12-11T18:29:14;0.60;99.90
14709;DHT22;7445;50.774;4.944;2022-12-11T18:31:40;0.60;99.90
14709;DHT22;7445;50.774;4.944;2022-12-11T18:34:06;0.60;99.90
14709;DHT22;7445;50.774;4.944;2022-12-11T18:36:33;0.50;99.90
14709;DHT22;7445;50.774;4.944;2022-12-11T18:39:00;0.50;99.90
14709;DHT22;7445;50.774;4.944;2022-12-11T18:41:25;0.50;99.90
14709;DHT22;7445;50.774;4.944;2022-12-11T18:43:51;0.40;99.90
14709;DHT22;7445;50.774;4.944;2022-12-11T18:46:19;0.40;99.90
14709;DHT22;7445;50.774;4.944;2022-12-11T18:48:46;0.40;99.90
14709;DHT22;7445;50.774;4.944;2022-12-11T18:51:15;0.40;99.90
14709;DHT22;7445;50.774;4.944;2022-12-11T18:53:43;0.40;99.90
14709;DHT22;7445;50.774;4.944;2022-12-11T18:56:12;0.40;99.90
14709;DHT22;7445;50.774;4.944;2022-12-11T18:58:38;0.40;99.90
14709;DHT22;7445;50.774;4.944;2022-12-11T19:01:07;0.40;99.90
14709;DHT22;7445;50.774;4.944;2022-12-11T19:03:34;0.30;99.90
14709;DHT22;7445;50.774;4.944;2022-12-11T19:06:15;0.30;99.90
14709;DHT22;7445;50.774;4.944;2022-12-11T19:08:42;0.30;99.90
14709;DHT22;7445;50.774;4.944;2022-12-11T19:11:07;0.30;99.90
14709;DHT22;7445;50.774;4.944;2022-12-11T19:13:34;0.30;99.90
14709;DHT22;7445;50.774;4.944;2022-12-11T19:16:00;0.20;99.90
14709;DHT22;7445;50.774;4.944;2022-12-11T19:18:26;0.20;99.90
14709;DHT22;7445;50.774;4.944;2022-12-11T19:20:52;0.20;99.90
14709;DHT22;7445;50.774;4.944;2022-12-11T19:23:19;0.10;99.90
14709;DHT22;7445;50.774;4.944;2022-12-11T19:25:47;0.10;99.90
14709;DHT22;7445;50.774;4.944;2022-12-11T19:28:14;0.10;99.90
14709;DHT22;7445;50.774;4.944;2022-12-11T19:30:47;0.00;99.90
14709;DHT22;7445;50.774;4.944;2022-12-11T19:33:14;0.00;99.90
14709;DHT22;7445;50.774;4.944;2022-12-11T19:35:40;0.10;99.90
14709;DHT22;7445;50.774;4.944;2022-12-11T19:38:06;0.00;99.90
14709;DHT22;7445;50.774;4.944;2022-12-11T19:40:33;0.00;99.90
14709;DHT22;7445;50.774;4.944;2022-12-11T19:42:58;0.00;99.90
14709;DHT22;7445;50.774;4.944;2022-12-11T19:45:24;0.00;99.90
14709;DHT22;7445;50.774;4.944;2022-12-11T19:47:50;0.00;99.90
14709;DHT22;7445;50.774;4.944;2022-12-11T19:50:15;-0.10;99.90
14709;DHT22;7445;50.774;4.944;2022-12-11T19:52:41;0.00;99.90
14709;DHT22;7445;50.774;4.944;2022-12-11T19:55:07;-0.10;99.90
14709;DHT22;7445;50.774;4.944;2022-12-11T19:57:33;-0.10;99.90
14709;DHT22;7445;50.774;4.944;2022-12-11T20:00:00;-0.10;99.90
14709;DHT22;7445;50.774;4.944;2022-12-11T20:02:26;-0.10;99.90
14709;DHT22;7445;50.774;4.944;2022-12-11T20:04:52;-0.20;99.90
14709;DHT22;7445;50.774;4.944;2022-12-11T20:07:17;-0.20;99.90
14709;DHT22;7445;50.774;4.944;2022-12-11T20:09:43;-0.20;99.90
14709;DHT22;7445;50.774;4.944;2022-12-11T20:12:09;-0.20;99.90
14709;DHT22;7445;50.774;4.944;2022-12-11T20:14:36;-0.20;99.90
14709;DHT22;7445;50.774;4.944;2022-12-11T20:17:02;-0.20;99.90
14709;DHT22;7445;50.774;4.944;2022-12-11T20:19:28;-0.20;99.90
14709;DHT22;7445;50.774;4.944;2022-12-11T20:21:54;-0.30;99.90
14709;DHT22;7445;50.774;4.944;2022-12-11T20:24:20;-0.30;99.90
14709;DHT22;7445;50.774;4.944;2022-12-11T20:26:46;-0.30;99.90
14709;DHT22;7445;50.774;4.944;2022-12-11T20:29:12;-0.30;99.90
14709;DHT22;7445;50.774;4.944;2022-12-11T20:31:39;-0.40;99.90
14709;DHT22;7445;50.774;4.944;2022-12-11T20:34:05;-0.40;99.90
14709;DHT22;7445;50.774;4.944;2022-12-11T20:36:31;-0.40;99.90
14709;DHT22;7445;50.774;4.944;2022-12-11T20:38:57;-0.50;99.90
14709;DHT22;7445;50.774;4.944;2022-12-11T20:41:24;-0.40;99.90
14709;DHT22;7445;50.774;4.944;2022-12-11T20:43:50;-0.50;99.90
14709;DHT22;7445;50.774;4.944;2022-12-11T20:46:18;-0.40;99.90
14709;DHT22;7445;50.774;4.944;2022-12-11T20:48:45;-0.50;99.90
14709;DHT22;7445;50.774;4.944;2022-12-11T20:51:13;-0.60;99.90
14709;DHT22;7445;50.774;4.944;2022-12-11T20:53:39;-0.50;99.90
14709;DHT22;7445;50.774;4.944;2022-12-11T20:56:15;-0.60;99.90
14709;DHT22;7445;50.774;4.944;2022-12-11T20:58:41;-0.60;99.90
14709;DHT22;7445;50.774;4.944;2022-12-11T21:01:16;-0.60;99.90
14709;DHT22;7445;50.774;4.944;2022-12-11T21:03:42;-0.60;99.90
14709;DHT22;7445;50.774;4.944;2022-12-11T21:06:20;-0.60;99.90
14709;DHT22;7445;50.774;4.944;2022-12-11T21:08:46;-0.60;99.90
14709;DHT22;7445;50.774;4.944;2022-12-11T21:11:12;-0.60;99.90
14709;DHT22;7445;50.774;4.944;2022-12-11T21:13:37;-0.70;99.90
14709;DHT22;7445;50.774;4.944;2022-12-11T21:16:05;-0.70;99.90
14709;DHT22;7445;50.774;4.944;2022-12-11T21:18:31;-0.80;99.90
14709;DHT22;7445;50.774;4.944;2022-12-11T21:20:57;-0.80;99.90
14709;DHT22;7445;50.774;4.944;2022-12-11T21:23:24;-0.80;99.90
14709;DHT22;7445;50.774;4.944;2022-12-11T21:25:52;-0.80;99.90
14709;DHT22;7445;50.774;4.944;2022-12-11T21:28:19;-0.80;99.90
14709;DHT22;7445;50.774;4.944;2022-12-11T21:30:45;-0.80;99.90
14709;DHT22;7445;50.774;4.944;2022-12-11T21:33:11;-0.70;99.90
14709;DHT22;7445;50.774;4.944;2022-12-11T21:35:37;-0.80;99.90
14709;DHT22;7445;50.774;4.944;2022-12-11T21:38:02;-0.80;99.90
14709;DHT22;7445;50.774;4.944;2022-12-11T21:40:28;-0.80;99.90
14709;DHT22;7445;50.774;4.944;2022-12-11T21:42:54;-0.80;99.90
14709;DHT22;7445;50.774;4.944;2022-12-11T21:45:20;-0.80;99.90
14709;DHT22;7445;50.774;4.944;2022-12-11T21:47:46;-0.80;99.90
14709;DHT22;7445;50.774;4.944;2022-12-11T21:50:11;-0.80;99.90
14709;DHT22;7445;50.774;4.944;2022-12-11T21:52:38;-0.80;99.90
14709;DHT22;7445;50.774;4.944;2022-12-11T21:55:04;-0.90;99.90
14709;DHT22;7445;50.774;4.944;2022-12-11T21:57:30;-0.90;99.90
14709;DHT22;7445;50.774;4.944;2022-12-11T21:59:55;-0.90;99.90
14709;DHT22;7445;50.774;4.944;2022-12-11T22:02:21;-0.90;99.90
14709;DHT22;7445;50.774;4.944;2022-12-11T22:04:47;-0.90;99.90
14709;DHT22;7445;50.774;4.944;2022-12-11T22:07:12;-1.00;99.90
14709;DHT22;7445;50.774;4.944;2022-12-11T22:09:39;-1.00;99.90
14709;DHT22;7445;50.774;4.944;2022-12-11T22:12:05;-1.00;99.90
14709;DHT22;7445;50.774;4.944;2022-12-11T22:14:31;-1.10;99.90
14709;DHT22;7445;50.774;4.944;2022-12-11T22:16:57;-1.10;99.90
14709;DHT22;7445;50.774;4.944;2022-12-11T22:19:23;-1.20;99.90
14709;DHT22;7445;50.774;4.944;2022-12-11T22:21:48;-1.20;99.90
14709;DHT22;7445;50.774;4.944;2022-12-11T22:24:14;-1.20;99.90
14709;DHT22;7445;50.774;4.944;2022-12-11T22:26:40;-1.10;99.90
14709;DHT22;7445;50.774;4.944;2022-12-11T22:29:06;-1.20;99.90
14709;DHT22;7445;50.774;4.944;2022-12-11T22:31:31;-1.20;99.90
14709;DHT22;7445;50.774;4.944;2022-12-11T22:33:57;-1.20;99.90
14709;DHT22;7445;50.774;4.944;2022-12-11T22:36:24;-1.20;99.90
14709;DHT22;7445;50.774;4.944;2022-12-11T22:38:51;-1.30;99.90
14709;DHT22;7445;50.774;4.944;2022-12-11T22:41:30;-1.40;99.90
14709;DHT22;7445;50.774;4.944;2022-12-11T22:43:56;-1.40;99.90
14709;DHT22;7445;50.774;4.944;2022-12-11T22:46:25;-1.50;99.90
14709;DHT22;7445;50.774;4.944;2022-12-11T22:48:51;-1.40;99.90
14709;DHT22;7445;50.774;4.944;2022-12-11T22:51:17;-1.40;99.90
14709;DHT22;7445;50.774;4.944;2022-12-11T22:53:43;-1.40;99.90
14709;DHT22;7445;50.774;4.944;2022-12-11T22:56:10;-1.40;99.90
14709;DHT22;7445;50.774;4.944;2022-12-11T22:58:37;-1.40;99.90
14709;DHT22;7445;50.774;4.944;2022-12-11T23:01:10;-1.50;99.90
14709;DHT22;7445;50.774;4.944;2022-12-11T23:03:37;-1.40;99.90
14709;DHT22;7445;50.774;4.944;2022-12-11T23:06:07;-1.40;99.90
